Time;durP1;ratioP1;P1;durP2;ratioP2;P2;SDS_P1;SDS_P2;PMS_P1;PMS_P2;Temp;Humidity;BMP_temperature;BMP_pressure;BME280_temperature;BME280_humidity;BME280_pressure;Samples;Min_cycle;Max_cycle;Signal;HPM_P1;HPM_P2
2023/08/07 02:35:57;;;;;;;9.00;5.60;;;;;;;26.87;100.00;97862.62;104317;1256;61755;-59
2023/08/07 02:38:25;;;;;;;8.20;5.80;;;;;;;26.87;100.00;97868.46;104392;1257;73539;-59
2023/08/07 02:40:53;;;;;;;6.70;5.70;;;;;;;26.85;100.00;97861.75;104444;1257;69304;-59
2023/08/07 02:43:20;;;;;;;8.30;5.70;;;;;;;26.82;100.00;97859.73;104454;1257;72488;-59
2023/08/07 02:45:48;;;;;;;;;;;;;;;26.80;100.00;97858.80;104310;1256;61565;-59
2023/08/07 02:48:17;;;;;;;6.50;5.90;;;;;;;26.76;100.00;97848.64;104562;1252;60425;-58
2023/08/07 02:50:46;;;;;;;8.30;6.60;;;;;;;26.75;100.00;97835.33;104233;1257;74035;-59
2023/08/07 02:53:13;;;;;;;7.20;6.00;;;;;;;26.76;100.00;97829.60;104479;1256;69491;-59
2023/08/07 02:55:43;;;;;;;15.60;6.70;;;;;;;26.71;100.00;97830.52;104307;1271;72497;-59
2023/08/07 02:58:11;;;;;;;9.80;6.00;;;;;;;26.68;100.00;97824.54;104359;1257;61361;-59
2023/08/07 03:00:39;;;;;;;7.50;6.40;;;;;;;26.64;100.00;97820.36;104474;1257;60507;-59
2023/08/07 03:03:06;;;;;;;6.90;6.30;;;;;;;26.61;100.00;97817.02;108491;1251;73695;-59
2023/08/07 03:05:34;;;;;;;10.20;6.70;;;;;;;26.60;100.00;97813.89;106297;1251;69857;-58
2023/08/07 03:08:02;;;;;;;7.70;6.30;;;;;;;26.57;100.00;97824.67;104585;1254;72588;-58
2023/08/07 03:10:29;;;;;;;;;;;;;;;26.56;100.00;97833.13;104338;1256;61405;-59
2023/08/07 03:12:57;;;;;;;;;;;;;;;26.53;100.00;97838.23;104524;1251;60553;-63
2023/08/07 03:15:24;;;;;;;;;;;;;;;26.50;100.00;97838.73;104612;1251;74082;-58
2023/08/07 03:17:52;;;;;;;11.00;6.30;;;;;;;26.47;100.00;97835.27;104693;1257;70015;-56
2023/08/07 03:20:20;;;;;;;10.10;6.30;;;;;;;26.47;100.00;97830.30;104551;1255;73333;-60
2023/08/07 03:22:47;;;;;;;7.20;6.20;;;;;;;26.47;100.00;97828.45;104375;1260;62029;-57
2023/08/07 03:25:15;;;;;;;9.00;6.50;;;;;;;26.48;100.00;97834.48;104498;1258;59699;-57
2023/08/07 03:27:43;;;;;;;7.70;7.00;;;;;;;26.47;100.00;97836.52;104543;1261;72668;-57
2023/08/07 03:30:10;;;;;;;;;;;;;;;26.49;100.00;97839.33;104429;1260;69489;-57
2023/08/07 03:32:38;;;;;;;12.60;6.90;;;;;;;26.52;100.00;97837.45;104509;1267;72920;-57
2023/08/07 03:35:06;;;;;;;;;;;;;;;26.49;100.00;97839.45;105845;1251;62385;-57
2023/08/07 03:37:33;;;;;;;8.90;6.50;;;;;;;26.49;100.00;97831.46;108466;1251;60446;-57
2023/08/07 03:40:01;;;;;;;11.30;6.30;;;;;;;26.49;100.00;97835.48;105751;1255;73645;-57
2023/08/07 03:42:29;;;;;;;7.20;6.50;;;;;;;26.51;100.00;97829.54;105421;1253;69061;-57
2023/08/07 03:44:58;;;;;;;13.90;6.90;;;;;;;26.54;100.00;97834.34;104555;1257;72658;-57
2023/08/07 03:47:25;;;;;;;7.30;6.70;;;;;;;26.54;100.00;97832.09;104484;1251;60642;-57
2023/08/07 03:49:53;;;;;;;;;;;;;;;26.56;100.00;97823.76;104479;1257;60272;-57
2023/08/07 03:52:21;;;;;;;7.90;6.50;;;;;;;26.57;100.00;97824.59;104397;1266;73640;-57
2023/08/07 03:54:49;;;;;;;;;;;;;;;26.57;100.00;97820.61;104542;1273;69199;-57
2023/08/07 03:57:16;;;;;;;10.90;6.80;;;;;;;26.58;100.00;97813.55;104568;1254;72920;-58
2023/08/07 03:59:44;;;;;;;8.80;6.50;;;;;;;26.60;100.00;97814.29;104335;1259;61393;-58
2023/08/07 04:02:12;;;;;;;13.20;7.50;;;;;;;26.64;100.00;97809.80;104450;1257;59817;-57
2023/08/07 04:04:39;;;;;;;11.00;6.80;;;;;;;26.69;100.00;97809.02;104269;1275;73813;-57
2023/08/07 04:07:07;;;;;;;;;;;;;;;26.74;100.00;97801.32;104441;1260;69120;-57
2023/08/07 04:09:35;;;;;;;9.80;6.50;;;;;;;26.72;100.00;97798.19;104583;1256;73137;-58
2023/08/07 04:12:03;;;;;;;7.00;6.30;;;;;;;26.73;100.00;97800.41;104373;1260;62378;-58
2023/08/07 04:14:31;;;;;;;9.10;7.20;;;;;;;26.74;100.00;97802.73;104462;1257;60558;-57
2023/08/07 04:17:00;;;;;;;7.80;6.90;;;;;;;26.76;100.00;97800.66;104579;1254;73782;-58
2023/08/07 04:19:28;;;;;;;11.80;6.60;;;;;;;26.79;100.00;97804.30;104359;1265;70120;-57
2023/08/07 04:21:55;;;;;;;;;;;;;;;26.80;100.00;97796.09;104461;1252;72252;-57
2023/08/07 04:24:24;;;;;;;10.00;6.80;;;;;;;26.81;100.00;97794.67;104330;1259;61758;-56
2023/08/07 04:26:51;;;;;;;;;;;;;;;26.80;100.00;97787.95;104456;1259;60629;-56
2023/08/07 04:29:19;;;;;;;8.50;6.40;;;;;;;26.80;100.00;97793.83;104507;1261;72920;-56
2023/08/07 04:31:47;;;;;;;;;;;;;;;26.85;100.00;97795.55;104622;1256;69192;-56
2023/08/07 04:34:14;;;;;;;;;;;;;;;26.89;100.00;97796.91;104299;1275;71489;-57
2023/08/07 04:36:42;;;;;;;;;;;;;;;26.94;100.00;97797.00;107954;1251;62315;-57
2023/08/07 04:39:09;;;;;;;7.90;6.70;;;;;;;26.98;100.00;97794.36;108165;1256;59430;-57
2023/08/07 04:41:37;;;;;;;9.30;7.00;;;;;;;27.05;100.00;97794.03;104705;1257;74484;-57
2023/08/07 04:44:05;;;;;;;12.10;7.30;;;;;;;27.12;100.00;97790.64;104355;1257;70009;-56
2023/08/07 04:46:33;;;;;;;13.40;6.90;;;;;;;27.18;100.00;97788.36;104728;1267;72918;-55
2023/08/07 04:49:01;;;;;;;12.00;7.00;;;;;;;27.23;100.00;97788.45;104878;1256;61385;-55
2023/08/07 04:51:31;;;;;;;8.70;7.60;;;;;;;27.29;100.00;97782.83;104489;1257;59890;-56
2023/08/07 04:53:58;;;;;;;10.10;7.20;;;;;;;27.38;100.00;97777.63;104519;1258;73610;-56
2023/08/07 04:56:26;;;;;;;9.40;7.00;;;;;;;27.46;100.00;97765.19;104768;1256;70020;-55
2023/08/07 04:58:54;;;;;;;9.00;7.40;;;;;;;27.50;100.00;97768.52;104850;1267;72493;-56
2023/08/07 05:01:22;;;;;;;;;;;;;;;27.53;100.00;97771.73;104398;1257;62496;-57
2023/08/07 05:03:49;;;;;;;8.60;6.60;;;;;;;27.56;100.00;97762.11;104431;1256;59579;-56
2023/08/07 05:06:18;;;;;;;9.20;6.50;;;;;;;27.57;100.00;97762.36;108494;1251;73671;-58
2023/08/07 05:08:46;;;;;;;10.10;6.40;;;;;;;27.65;100.00;97778.08;106669;1251;69123;-57
2023/08/07 05:11:15;;;;;;;13.80;6.80;;;;;;;27.69;100.00;97782.19;104460;1268;72626;-57
2023/08/07 05:13:42;;;;;;;15.30;7.30;;;;;;;27.69;100.00;97777.59;104313;1266;61404;-57
2023/08/07 05:16:10;;;;;;;;;;;;;;;27.66;100.00;97771.01;104979;1255;60529;-56
2023/08/07 05:18:37;;;;;;;;;;;;;;;27.64;100.00;97769.28;104328;1259;74052;-56
2023/08/07 05:21:08;;;;;;;11.70;6.20;;;;;;;27.62;100.00;97771.46;104566;1257;69009;-56
2023/08/07 05:23:36;;;;;;;10.70;6.90;;;;;;;27.58;100.00;97774.60;104231;1273;71934;-57
2023/08/07 05:26:03;;;;;;;12.40;6.80;;;;;;;27.56;100.00;97767.27;104370;1257;61655;-57
2023/08/07 05:28:31;;;;;;;;;;;;;;;27.57;100.00;97770.20;104432;1256;60559;-56
2023/08/07 05:30:59;;;;;;;9.10;6.60;;;;;;;27.55;100.00;97780.23;104479;1256;74062;-56
2023/08/07 05:33:26;;;;;;;;;;;;;;;27.52;100.00;97787.48;104520;1261;69202;-56
2023/08/07 05:35:55;;;;;;;10.00;6.70;;;;;;;27.49;100.00;97783.48;105055;1251;72909;-56
2023/08/07 05:38:23;;;;;;;8.90;6.00;;;;;;;27.50;100.00;97780.70;108445;1251;61397;-57
2023/08/07 05:40:50;;;;;;;9.60;6.40;;;;;;;27.54;100.00;97787.10;106533;1256;60533;-57
2023/08/07 05:43:18;;;;;;;10.10;6.20;;;;;;;27.61;100.00;97782.18;104544;1257;73650;-56
2023/08/07 05:45:46;;;;;;;12.10;6.60;;;;;;;27.66;100.00;97786.52;104714;1256;69053;-56
2023/08/07 05:48:14;;;;;;;12.30;7.10;;;;;;;27.71;100.00;97803.02;104465;1265;71308;-57
2023/08/07 05:50:42;;;;;;;7.80;6.20;;;;;;;27.72;100.00;97804.70;104446;1256;61558;-58
2023/08/07 05:53:10;;;;;;;9.40;6.50;;;;;;;27.69;100.00;97798.22;104490;1257;60606;-56
2023/08/07 05:55:41;;;;;;;9.10;6.70;;;;;;;27.69;100.00;97801.71;104490;1256;73596;-56
2023/08/07 05:58:09;;;;;;;10.80;7.10;;;;;;;27.71;100.00;97792.27;104601;1261;69036;-56
2023/08/07 06:00:37;;;;;;;12.70;6.70;;;;;;;27.77;100.00;97763.22;104395;1257;72903;-57
2023/08/07 06:03:05;;;;;;;6.60;6.00;;;;;;;27.87;100.00;97757.04;104482;1254;61420;-57
2023/08/07 06:05:33;;;;;;;8.40;6.20;;;;;;;27.91;100.00;97769.18;104715;1252;59634;-57
2023/08/07 06:08:01;;;;;;;12.80;6.80;;;;;;;28.08;100.00;97765.32;104630;1256;75671;-57
2023/08/07 06:10:29;;;;;;;;;;;;;;;28.18;100.00;97785.40;104684;1257;69167;-56
2023/08/07 06:12:56;;;;;;;11.60;6.30;;;;;;;28.30;100.00;97792.18;104461;1252;72527;-56
2023/08/07 06:15:24;;;;;;;11.00;6.10;;;;;;;28.38;100.00;97777.83;104767;1256;61760;-57
2023/08/07 06:17:52;;;;;;;12.50;5.90;;;;;;;28.39;100.00;97772.13;104502;1257;59881;-59
2023/08/07 06:20:20;;;;;;;9.30;6.00;;;;;;;28.31;100.00;97764.81;104618;1264;73898;-57
2023/08/07 06:22:48;;;;;;;6.70;6.00;;;;;;;28.17;100.00;97764.73;104649;1260;68259;-57
2023/08/07 06:25:15;;;;;;;;;;;;;;;27.99;100.00;97777.34;104522;1257;72894;-57
2023/08/07 06:27:43;;;;;;;10.10;5.80;;;;;;;27.77;100.00;97780.00;104745;1251;61392;-56
2023/08/07 06:30:11;;;;;;;11.40;6.20;;;;;;;27.59;100.00;97781.48;104276;1257;60477;-57
2023/08/07 06:32:39;;;;;;;10.10;6.80;;;;;;;27.53;100.00;97792.54;104249;1257;73630;-57
2023/08/07 06:35:07;;;;;;;6.70;6.10;;;;;;;27.52;100.00;97802.80;104429;1275;70295;-57
2023/08/07 06:37:35;;;;;;;8.70;7.00;;;;;;;27.53;100.00;97799.48;106711;1251;72176;-57
2023/08/07 06:40:03;;;;;;;9.70;6.50;;;;;;;27.52;100.00;97786.86;108523;1251;60494;-57
2023/08/07 06:44:22;;;;;;;7.20;6.50;;;;;;;27.12;100.00;97800.27;101740;1294;604034;-57
2023/08/07 06:46:50;;;;;;;8.70;6.10;;;;;;;27.40;100.00;97803.69;104071;1266;61789;-57
2023/08/07 06:49:17;;;;;;;12.10;6.50;;;;;;;27.45;100.00;97802.44;103611;1265;60052;-58
2023/08/07 06:51:45;;;;;;;10.30;6.90;;;;;;;27.49;100.00;97803.13;104027;1264;72356;-58
2023/08/07 06:54:12;;;;;;;;;;;;;;;27.44;100.00;97805.22;103967;1269;69669;-62
2023/08/07 06:56:42;;;;;;;;;;;;;;;27.47;100.00;97809.73;103553;1265;72387;-57
2023/08/07 06:59:09;;;;;;;9.80;7.10;;;;;;;27.46;100.00;97813.23;104156;1273;229940;-58
2023/08/07 07:01:37;;;;;;;7.40;6.40;;;;;;;27.45;100.00;97808.21;104090;1262;59811;-57
2023/08/07 07:04:05;;;;;;;12.40;6.90;;;;;;;27.44;100.00;97805.05;104081;1266;72055;-57
2023/08/07 07:06:33;;;;;;;7.90;6.80;;;;;;;27.43;100.00;97807.03;104075;1269;69104;-57
2023/08/07 07:09:01;;;;;;;8.20;6.90;;;;;;;27.44;100.00;97811.05;106862;1263;72664;-57
2023/08/07 07:11:28;;;;;;;;;;;;;;;27.41;100.00;97810.73;106135;1263;62327;-57
2023/08/07 07:13:56;;;;;;;8.40;6.60;;;;;;;27.38;100.00;97824.45;104666;1263;59653;-57
2023/08/07 07:16:23;;;;;;;8.10;6.40;;;;;;;27.31;100.00;97830.69;103913;1263;72875;-57
2023/08/07 07:18:55;;;;;;;12.60;7.30;;;;;;;27.24;100.00;97829.80;104137;1275;69161;-57
2023/08/07 07:21:23;;;;;;;8.30;6.90;;;;;;;27.19;100.00;97822.27;104166;1268;72971;-57
2023/08/07 07:23:50;;;;;;;10.90;6.70;;;;;;;27.20;100.00;97823.00;104206;1264;61002;-57
2023/08/07 07:26:18;;;;;;;8.60;7.30;;;;;;;27.22;100.00;97821.61;104279;1263;59762;-57
2023/08/07 07:28:45;;;;;;;;;;;;;;;27.27;100.00;97817.42;104117;1262;72902;-57
2023/08/07 07:31:13;;;;;;;7.60;6.90;;;;;;;27.29;100.00;97819.73;104001;1275;70067;-58
2023/08/07 07:33:42;;;;;;;7.80;6.90;;;;;;;27.28;100.00;97823.31;104104;1266;72466;-57
2023/08/07 07:36:16;;;;;;;10.40;7.00;;;;;;;27.30;100.00;97827.86;104073;1263;61859;-58
2023/08/07 07:38:47;;;;;;;13.00;7.10;;;;;;;27.29;100.00;97831.86;105475;1263;59564;-58
2023/08/07 07:41:15;;;;;;;10.90;7.00;;;;;;;27.25;100.00;97838.98;106127;1265;72152;-58
2023/08/07 07:43:43;;;;;;;11.10;6.90;;;;;;;27.24;100.00;97840.56;104341;1263;68110;-57
2023/08/07 07:46:10;;;;;;;7.90;7.10;;;;;;;27.24;100.00;97837.08;104342;1265;73061;-57
2023/08/07 07:48:38;;;;;;;;;;;;;;;27.21;100.00;97837.64;104284;1263;61564;-57
2023/08/07 07:51:06;;;;;;;10.60;7.50;;;;;;;27.17;100.00;97833.42;104086;1266;60073;-57
2023/08/07 07:53:34;;;;;;;8.80;7.00;;;;;;;27.19;100.00;97830.10;103882;1264;72911;-57
2023/08/07 07:56:02;;;;;;;8.50;7.60;;;;;;;27.27;100.00;97829.82;103768;1286;69813;-57
2023/08/07 07:58:29;;;;;;;9.90;7.60;;;;;;;27.39;100.00;97822.98;103708;1267;72799;-57
2023/08/07 08:00:57;;;;;;;7.90;7.20;;;;;;;27.54;100.00;97818.85;103683;1270;61408;-57
2023/08/07 08:03:25;;;;;;;13.00;7.30;;;;;;;27.69;100.00;97817.70;103904;1269;59928;-57
2023/08/07 08:05:53;;;;;;;12.70;7.10;;;;;;;27.90;100.00;97808.45;103669;1263;73278;-57
2023/08/07 08:08:21;;;;;;;10.10;7.50;;;;;;;28.09;100.00;97798.96;103635;1270;70134;-58
2023/08/07 08:10:48;;;;;;;;;;;;;;;28.24;100.00;97788.76;103554;1281;72491;-58
2023/08/07 08:13:16;;;;;;;7.40;6.70;;;;;;;28.37;100.00;97784.41;103685;1270;61460;-57
2023/08/07 08:15:44;;;;;;;8.00;7.20;;;;;;;28.46;100.00;97779.02;103952;1263;59791;-57
2023/08/07 08:18:12;;;;;;;9.10;6.80;;;;;;;28.50;100.00;97776.20;103994;1266;72888;-56
2023/08/07 08:20:40;;;;;;;8.40;6.90;;;;;;;28.57;100.00;97767.91;103898;1276;69651;-57
2023/08/07 08:23:08;;;;;;;10.10;6.90;;;;;;;28.57;100.00;97761.00;104068;1272;72102;-57
2023/08/07 08:25:35;;;;;;;;;;;;;;;28.59;100.00;97774.16;104164;1262;61614;-58
2023/08/07 08:28:03;;;;;;;7.40;6.50;;;;;;;28.75;100.00;97773.34;103989;1265;59626;-57
2023/08/07 08:30:31;;;;;;;7.30;6.50;;;;;;;28.93;100.00;97772.80;103967;1268;72876;-57
2023/08/07 08:32:59;;;;;;;;;;;;;;;29.10;100.00;97768.11;104050;1267;69682;-57
2023/08/07 08:35:27;;;;;;;6.70;6.00;;;;;;;29.21;100.00;97779.52;104079;1272;72407;-58
2023/08/07 08:37:55;;;;;;;7.50;6.00;;;;;;;29.23;100.00;97783.35;104168;1260;61424;-57
2023/08/07 08:40:24;;;;;;;;;;;;;;;29.24;100.00;97791.29;105428;1260;59690;-59
2023/08/07 08:42:54;;;;;;;10.00;6.40;;;;;;;29.21;100.00;97793.75;105593;1262;73248;-58
2023/08/07 08:45:22;;;;;;;13.80;7.30;;;;;;;29.17;100.00;97791.26;103989;1266;68340;-58
2023/08/07 08:47:49;;;;;;;;;;;;;;;29.02;100.00;97799.48;104410;1264;72374;-57
2023/08/07 08:50:17;;;;;;;10.30;7.20;;;;;;;28.66;100.00;97819.03;104316;1262;61509;-58
2023/08/07 08:52:45;;;;;;;12.10;7.10;;;;;;;28.32;100.00;97843.59;104556;1262;59748;-57
2023/08/07 08:55:13;;;;;;;16.00;8.30;;;;;;;28.04;100.00;97862.13;103859;1260;72902;-60
2023/08/07 08:57:41;;;;;;;14.50;8.80;;;;;;;27.76;100.00;97862.17;103911;1260;68222;-56
2023/08/07 09:00:20;;;;;;;;;;;;;;;27.51;100.00;97860.31;104124;1266;72777;-56
2023/08/07 09:02:49;;;;;;;12.10;9.00;;;;;;;27.27;100.00;97870.23;104028;1263;62425;-56
2023/08/07 09:05:19;;;;;;;9.90;8.90;;;;;;;27.09;100.00;97888.45;103863;1267;59684;-56
2023/08/07 09:07:47;;;;;;;10.70;9.00;;;;;;;26.96;100.00;97896.39;104131;1267;71997;-56
2023/08/07 09:10:16;;;;;;;10.60;9.70;;;;;;;26.95;100.00;97887.05;104126;1266;69063;-57
2023/08/07 09:12:54;;;;;;;11.80;10.60;;;;;;;27.02;100.00;97887.16;107365;1260;71712;-57
2023/08/07 09:15:22;;;;;;;11.40;9.80;;;;;;;27.14;100.00;97888.35;105347;1266;61673;-58
2023/08/07 09:17:50;;;;;;;;;;;;;;;27.21;100.00;97884.20;104225;1266;61392;-57
2023/08/07 09:20:19;;;;;;;10.30;8.40;;;;;;;27.27;100.00;97884.50;104257;1263;72963;-57
2023/08/07 09:22:47;;;;;;;10.00;8.40;;;;;;;27.30;100.00;97884.85;104624;1263;69254;-57
2023/08/07 09:25:15;;;;;;;8.60;7.70;;;;;;;27.30;100.00;97882.48;103980;1266;72431;-57
2023/08/07 09:27:43;;;;;;;;;;;;;;;27.24;100.00;97894.25;104019;1263;61796;-57
2023/08/07 19:00:59;;;;;;;3.10;1.50;;;;;;;20.09;100.00;98873.58;101601;1292;600753;-65
2023/08/07 19:03:27;;;;;;;1.50;1.40;;;;;;;20.31;100.00;98866.77;103793;1266;62006;-64
2023/08/07 19:05:54;;;;;;;;;;;;;;;20.30;100.00;98870.23;103575;1267;59964;-65
2023/08/07 19:08:22;;;;;;;2.20;1.70;;;;;;;20.25;100.00;98870.34;103736;1269;72105;-65
2023/08/07 19:10:49;;;;;;;2.10;1.90;;;;;;;20.18;100.00;98869.73;103658;1269;68061;-63
2023/08/07 19:13:17;;;;;;;1.70;1.60;;;;;;;20.11;100.00;98873.29;103794;1282;73348;-64
2023/08/07 19:15:46;;;;;;;;;;;;;;;20.07;100.00;98876.34;103759;1261;335839;-64
2023/08/07 19:18:14;;;;;;;4.40;2.00;;;;;;;20.04;100.00;98877.50;103996;1277;59739;-66
2023/08/07 19:20:41;;;;;;;1.80;1.60;;;;;;;19.97;100.00;98879.69;103924;1268;71877;-64
2023/08/07 19:23:10;;;;;;;;;;;;;;;19.91;100.00;98885.98;104068;1261;69122;-64
2023/08/07 19:25:38;;;;;;;3.10;2.00;;;;;;;19.83;100.00;98890.96;103946;1276;71340;-64
2023/08/07 19:28:07;;;;;;;4.80;2.80;;;;;;;19.78;100.00;98893.95;105242;1262;61488;-64
2023/08/07 19:30:35;;;;;;;2.30;2.10;;;;;;;19.72;100.00;98899.44;107219;1263;60078;-65
2023/08/07 19:33:03;;;;;;;3.30;1.80;;;;;;;19.72;100.00;98902.98;104899;1268;72175;-66
2023/08/07 19:35:30;;;;;;;1.90;1.80;;;;;;;19.73;100.00;98901.48;104038;1263;68706;-65
2023/08/07 19:37:58;;;;;;;2.10;1.90;;;;;;;19.75;100.00;98904.34;104105;1271;73296;-65
2023/08/07 19:40:27;;;;;;;2.00;1.90;;;;;;;19.74;100.00;98903.17;104490;1269;62379;-65
2023/08/07 19:42:55;;;;;;;2.50;1.80;;;;;;;19.76;100.00;98904.25;103946;1261;59696;-64
2023/08/07 19:45:22;;;;;;;2.20;1.90;;;;;;;19.77;100.00;98909.88;104036;1270;73249;-64
2023/08/07 19:47:50;;;;;;;5.00;2.00;;;;;;;19.74;100.00;98909.98;103974;1284;68212;-64
2023/08/07 19:50:18;;;;;;;3.40;1.90;;;;;;;19.71;100.00;98912.73;103976;1267;73438;-63
2023/08/07 19:52:46;;;;;;;4.90;2.10;;;;;;;19.69;100.00;98913.08;104015;1263;62061;-64
2023/08/07 19:55:15;;;;;;;2.30;2.10;;;;;;;19.68;100.00;98912.85;103917;1284;59431;-65
2023/08/07 19:57:42;;;;;;;3.50;2.40;;;;;;;19.65;100.00;98913.55;103969;1280;72967;-63
2023/08/07 20:00:11;;;;;;;3.10;2.50;;;;;;;19.62;100.00;98913.64;103998;1264;69970;-63
2023/08/07 20:02:38;;;;;;;4.60;2.80;;;;;;;19.60;100.00;98914.01;104021;1269;72896;-63
2023/08/07 20:05:06;;;;;;;2.60;2.40;;;;;;;19.56;100.00;98916.20;103934;1266;61514;-63
2023/08/07 20:07:34;;;;;;;3.80;2.60;;;;;;;19.52;100.00;98913.54;103916;1269;60284;-63
2023/08/07 20:10:04;;;;;;;2.80;2.50;;;;;;;19.48;100.00;98917.32;103988;1263;71753;-63
2023/08/07 20:12:32;;;;;;;7.50;2.60;;;;;;;19.43;100.00;98916.45;104047;1264;69014;-65
2023/08/07 20:15:00;;;;;;;4.00;2.30;;;;;;;19.41;100.00;98919.34;103947;1265;72456;-63
2023/08/07 20:17:28;;;;;;;;;;;;;;;19.38;100.00;98923.49;104054;1269;62532;-65
2023/08/07 20:19:55;;;;;;;;;;;;;;;19.33;100.00;98929.69;104021;1270;59806;-65
2023/08/07 20:22:23;;;;;;;3.50;2.80;;;;;;;19.28;100.00;98928.89;103919;1268;72635;-64
2023/08/07 20:24:50;;;;;;;3.30;3.10;;;;;;;19.25;100.00;98931.41;104069;1266;69079;-65
2023/08/07 20:27:18;;;;;;;4.00;3.00;;;;;;;19.34;100.00;98934.58;104515;1258;72506;-62
2023/08/07 20:29:46;;;;;;;;;;;;;;;19.33;100.00;98935.91;104350;1257;60393;-64
2023/08/07 20:32:13;;;;;;;;;;;;;;;19.21;100.00;98936.61;104352;1257;59947;-62
2023/08/07 20:34:41;;;;;;;5.30;2.70;;;;;;;19.13;100.00;98941.88;104277;1258;73294;-62
2023/08/07 20:37:09;;;;;;;;;;;;;;;19.11;100.00;98944.96;104307;1260;69824;-63
2023/08/07 20:39:37;;;;;;;4.00;2.50;;;;;;;19.11;100.00;98947.13;104230;1259;72561;-62
2023/08/07 20:42:05;;;;;;;6.10;2.60;;;;;;;19.19;100.00;98949.42;104408;1264;61383;-63
2023/08/07 20:44:32;;;;;;;;;;;;;;;19.20;100.00;98953.91;104352;1260;60628;-62
2023/08/07 20:47:00;;;;;;;3.10;2.80;;;;;;;19.20;100.00;98955.30;106615;1254;73680;-63
2023/08/07 20:49:27;;;;;;;5.40;3.10;;;;;;;19.20;100.00;98951.94;107926;1255;70066;-63
2023/08/07 20:51:55;;;;;;;3.40;2.70;;;;;;;19.20;100.00;98946.11;104821;1272;72350;-62
2023/08/07 20:54:24;;;;;;;4.60;3.10;;;;;;;19.16;100.00;98948.26;104593;1260;60843;-63
2023/08/07 20:56:53;;;;;;;4.00;3.30;;;;;;;19.12;100.00;98950.75;104301;1260;59853;-62
2023/08/07 20:59:21;;;;;;;3.90;3.50;;;;;;;19.06;100.00;98947.70;104563;1263;72756;-62
2023/08/07 21:01:49;;;;;;;3.20;2.80;;;;;;;19.01;100.00;98945.48;104217;1260;69414;-63
2023/08/07 21:04:16;;;;;;;4.20;3.80;;;;;;;19.05;100.00;98949.44;104553;1263;72945;-63
2023/08/07 21:06:46;;;;;;;6.70;2.90;;;;;;;19.00;100.00;98949.66;104326;1257;61831;-63
2023/08/07 21:09:13;;;;;;;4.00;3.40;;;;;;;19.03;100.00;98951.32;104446;1257;59847;-63
2023/08/07 21:11:41;;;;;;;7.10;3.30;;;;;;;19.02;100.00;98949.63;104430;1257;73496;-63
2023/08/07 21:14:09;;;;;;;4.30;3.20;;;;;;;19.01;100.00;98946.74;104256;1262;70024;-63
2023/08/07 21:16:37;;;;;;;12.00;3.50;;;;;;;18.96;100.00;98950.37;104290;1269;72433;-63
2023/08/07 21:19:04;;;;;;;;;;;;;;;18.99;100.00;98951.52;104326;1257;61439;-62
2023/08/07 21:21:32;;;;;;;;;;;;;;;18.94;100.00;98950.56;104273;1256;60884;-62
2023/08/07 21:24:00;;;;;;;;;;;;;;;18.83;100.00;98955.41;104349;1258;72899;-62
2023/08/07 21:26:27;;;;;;;4.70;2.50;;;;;;;18.73;100.00;98958.45;104177;1279;69610;-63
2023/08/07 21:28:55;;;;;;;3.10;2.50;;;;;;;18.67;100.00;98963.56;104370;1257;72851;-63
2023/08/07 21:31:23;;;;;;;6.00;2.90;;;;;;;18.72;100.00;98969.91;104236;1261;61426;-63
2023/08/07 21:33:51;;;;;;;4.20;2.70;;;;;;;18.75;100.00;98971.20;107781;1257;58829;-64
2023/08/07 21:36:19;;;;;;;3.20;2.70;;;;;;;18.73;100.00;98977.56;105662;1257;72836;-63
2023/08/07 21:38:46;;;;;;;2.90;2.70;;;;;;;18.73;100.00;98977.90;104544;1261;69093;-64
2023/08/07 21:41:14;;;;;;;2.30;2.10;;;;;;;18.74;100.00;98976.79;104518;1257;72462;-65
2023/08/07 21:43:42;;;;;;;;;;;;;;;18.76;100.00;98981.92;104432;1260;62038;-64
2023/08/07 21:46:10;;;;;;;;;;;;;;;18.75;100.00;98981.64;104283;1256;59793;-63
2023/08/07 21:48:38;;;;;;;2.60;2.40;;;;;;;18.73;100.00;98982.05;104214;1274;72148;-66
2023/08/07 21:51:06;;;;;;;2.40;2.30;;;;;;;18.72;100.00;98985.52;104283;1264;69655;-63
2023/08/07 21:53:33;;;;;;;3.90;2.60;;;;;;;18.72;100.00;98993.88;104306;1271;74459;-62
2023/08/07 21:56:01;;;;;;;2.40;2.20;;;;;;;18.72;100.00;98995.94;104254;1272;61415;-62
2023/08/07 21:58:29;;;;;;;3.80;2.30;;;;;;;18.72;100.00;98990.40;104213;1263;59752;-63
2023/08/07 22:00:57;;;;;;;2.90;2.50;;;;;;;18.74;100.00;98984.24;104431;1262;72804;-63
2023/08/07 22:03:24;;;;;;;2.70;2.50;;;;;;;18.74;100.00;98982.45;104573;1259;69596;-63
2023/08/07 22:05:52;;;;;;;2.90;2.00;;;;;;;18.72;100.00;98980.11;104416;1269;73340;-62
2023/08/07 22:08:20;;;;;;;4.00;2.40;;;;;;;18.65;100.00;98983.55;104406;1259;62056;-63
2023/08/07 22:10:48;;;;;;;2.90;2.10;;;;;;;18.60;100.00;98982.80;104249;1260;59883;-63
2023/08/07 22:13:15;;;;;;;2.60;2.40;;;;;;;18.62;100.00;98988.64;104647;1258;72896;-64
2023/08/07 22:15:43;;;;;;;5.70;2.40;;;;;;;18.67;100.00;98990.80;104399;1269;69158;-64
2023/08/07 22:18:11;;;;;;;6.70;2.30;;;;;;;18.67;100.00;98989.73;104288;1276;72521;-63
2023/08/07 22:20:38;;;;;;;4.90;2.60;;;;;;;18.67;100.00;98991.02;104526;1260;61373;-64
2023/08/07 22:23:06;;;;;;;6.00;2.30;;;;;;;18.63;100.00;98995.99;104424;1258;59663;-63
2023/08/07 22:25:34;;;;;;;2.40;2.20;;;;;;;18.53;100.00;98995.77;104284;1260;72854;-64
2023/08/07 22:28:04;;;;;;;3.20;2.00;;;;;;;18.52;100.00;98994.48;104283;1260;69115;-63
2023/08/07 22:30:31;;;;;;;4.70;2.30;;;;;;;18.57;100.00;98999.38;104352;1259;71328;-64
2023/08/07 22:33:02;;;;;;;3.20;2.40;;;;;;;18.59;100.00;99005.39;104588;1260;62364;-65
2023/08/07 22:35:29;;;;;;;2.30;2.10;;;;;;;18.59;100.00;99014.46;104349;1256;60728;-64
2023/08/07 22:37:57;;;;;;;3.30;1.90;;;;;;;18.58;100.00;99017.90;104396;1259;73057;-64
2023/08/07 22:40:25;;;;;;;2.80;1.90;;;;;;;18.57;100.00;99024.35;104281;1263;69190;-64
2023/08/07 22:42:53;;;;;;;2.40;2.20;;;;;;;18.45;100.00;99028.06;104255;1260;72392;-65
2023/08/07 22:45:21;;;;;;;6.00;2.60;;;;;;;18.40;100.00;99033.52;104425;1260;62082;-64
2023/08/07 22:47:49;;;;;;;3.00;2.00;;;;;;;18.35;100.00;99034.21;104324;1255;60113;-64
2023/08/07 22:50:17;;;;;;;4.10;2.20;;;;;;;18.34;100.00;99035.91;104466;1258;73124;-64
2023/08/07 22:52:45;;;;;;;2.20;2.10;;;;;;;18.29;100.00;99040.55;104251;1262;69570;-66
2023/08/07 22:55:13;;;;;;;2.40;2.20;;;;;;;18.32;100.00;99042.14;104386;1257;72508;-64
2023/08/07 22:57:40;;;;;;;2.10;1.90;;;;;;;18.37;100.00;99040.45;104508;1257;60533;-67
2023/08/07 23:00:10;;;;;;;2.70;2.50;;;;;;;18.38;100.00;99044.52;104329;1260;59888;-64
2023/08/07 23:02:38;;;;;;;3.30;2.00;;;;;;;18.37;100.00;99049.39;104452;1260;72865;-65
2023/08/07 23:05:06;;;;;;;;;;;;;;;18.34;100.00;99050.46;104645;1272;69276;-63
2023/08/07 23:07:34;;;;;;;2.40;2.10;;;;;;;18.28;100.00;99050.59;104465;1257;72642;-63
2023/08/07 23:10:01;;;;;;;;;;;;;;;18.27;100.00;99053.54;104740;1254;61432;-63
2023/08/07 23:12:29;;;;;;;2.20;2.00;;;;;;;18.25;100.00;99063.05;104489;1257;60683;-63
2023/08/07 23:14:56;;;;;;;2.50;2.30;;;;;;;18.20;100.00;99062.84;104510;1270;74135;-63
2023/08/07 23:17:24;;;;;;;4.80;2.10;;;;;;;18.20;100.00;99065.80;104550;1254;70308;-63
2023/08/07 23:19:52;;;;;;;2.30;2.10;;;;;;;18.17;100.00;99070.19;104553;1256;73342;-63
2023/08/07 23:22:19;;;;;;;4.80;2.40;;;;;;;18.11;100.00;99070.48;104301;1257;60806;-63
2023/08/07 23:24:48;;;;;;;5.40;2.00;;;;;;;18.05;100.00;99076.08;104696;1257;60513;-63
2023/08/07 23:27:16;;;;;;;2.80;1.90;;;;;;;18.03;100.00;99078.20;104503;1260;73652;-63
2023/08/07 23:29:44;;;;;;;4.50;2.40;;;;;;;17.99;100.00;99075.18;104310;1270;70736;-63
2023/08/07 23:32:11;;;;;;;5.50;2.40;;;;;;;17.98;100.00;99077.58;104289;1260;72870;-63
2023/08/07 23:34:39;;;;;;;3.70;2.40;;;;;;;17.95;100.00;99076.62;104433;1264;62970;-64
2023/08/07 23:37:07;;;;;;;2.90;2.20;;;;;;;17.88;100.00;99075.36;108452;1253;60104;-65